createdAt,value
2018-06-30T00:00:18.333Z,19.30
2018-06-30T00:02:47.539Z,19.20
2018-06-30T00:05:17.236Z,19.20
2018-06-30T00:07:47.093Z,19.10
2018-06-30T00:10:24.304Z,19.10
2018-06-30T00:12:53.812Z,19.00
2018-06-30T00:15:23.144Z,18.90
2018-06-30T00:17:52.326Z,18.90
2018-06-30T00:20:20.945Z,18.90
2018-06-30T00:22:49.746Z,18.90
2018-06-30T00:25:18.465Z,18.80
2018-06-30T00:27:47.783Z,18.80
2018-06-30T00:30:16.586Z,18.80
2018-06-30T00:32:45.257Z,18.80
2018-06-30T00:35:14.714Z,18.80
2018-06-30T00:37:43.399Z,18.70
2018-06-30T00:40:12.105Z,18.70
2018-06-30T00:42:41.193Z,18.70
2018-06-30T00:45:10.760Z,18.60
2018-06-30T00:47:41.073Z,18.60
2018-06-30T00:50:09.771Z,18.60
2018-06-30T00:52:38.876Z,18.50
2018-06-30T00:55:08.509Z,18.50
2018-06-30T00:57:37.530Z,18.50
2018-06-30T01:00:06.955Z,18.50
2018-06-30T01:02:37.928Z,18.40
2018-06-30T01:05:07.111Z,18.40
2018-06-30T01:07:37.774Z,18.30
2018-06-30T01:10:07.550Z,18.30
2018-06-30T01:12:36.473Z,18.30
2018-06-30T01:15:05.333Z,18.30
2018-06-30T01:17:34.197Z,18.30
2018-06-30T01:20:02.967Z,18.20
2018-06-30T01:22:31.674Z,18.20
2018-06-30T01:25:01.833Z,18.20
2018-06-30T01:27:30.573Z,18.20
2018-06-30T01:29:59.933Z,18.20
2018-06-30T01:32:28.866Z,18.20
2018-06-30T01:34:58.206Z,18.10
2018-06-30T01:37:27.236Z,18.00
2018-06-30T01:39:56.980Z,18.00
2018-06-30T01:42:26.717Z,17.90
2018-06-30T01:44:55.658Z,17.90
2018-06-30T01:47:24.641Z,17.90
2018-06-30T01:49:53.441Z,17.80
2018-06-30T01:52:22.177Z,17.80
2018-06-30T01:54:51.978Z,17.80
2018-06-30T01:57:20.825Z,17.80
2018-06-30T01:59:50.203Z,17.70
2018-06-30T02:02:18.921Z,17.70
2018-06-30T02:04:47.605Z,17.70
2018-06-30T02:07:17.003Z,17.70
2018-06-30T02:09:45.965Z,17.60
2018-06-30T02:12:18.706Z,17.60
2018-06-30T02:14:48.074Z,17.60
2018-06-30T02:17:17.559Z,17.60
2018-06-30T02:19:46.257Z,17.60
2018-06-30T02:22:14.910Z,17.60
2018-06-30T02:24:43.955Z,17.60
2018-06-30T02:27:13.656Z,17.50
2018-06-30T02:29:42.902Z,17.50
2018-06-30T02:32:12.384Z,17.50
2018-06-30T02:34:41.059Z,17.50
2018-06-30T02:37:10.395Z,17.50
2018-06-30T02:39:39.098Z,17.50
2018-06-30T02:42:08.008Z,17.40
2018-06-30T02:44:37.211Z,17.40
2018-06-30T02:47:05.981Z,17.40
2018-06-30T02:49:34.934Z,17.30
2018-06-30T02:52:03.636Z,17.20
2018-06-30T02:54:33.260Z,17.20
2018-06-30T02:57:01.976Z,17.20
2018-06-30T02:59:30.645Z,17.10
2018-06-30T03:02:02.431Z,17.10
2018-06-30T03:04:31.116Z,17.10
2018-06-30T03:06:59.774Z,17.00
2018-06-30T03:09:28.666Z,17.00
2018-06-30T03:11:59.008Z,17.00
2018-06-30T03:14:27.822Z,17.00
2018-06-30T03:16:56.618Z,17.00
2018-06-30T03:19:25.681Z,16.90
2018-06-30T03:21:54.274Z,16.90
2018-06-30T03:24:22.964Z,16.90
2018-06-30T03:26:51.750Z,16.80
2018-06-30T03:29:20.624Z,16.80
2018-06-30T03:31:49.365Z,16.80
2018-06-30T03:34:18.056Z,16.70
2018-06-30T03:36:46.898Z,16.70
2018-06-30T03:39:16.014Z,16.70
2018-06-30T03:41:44.826Z,16.70
2018-06-30T03:44:13.590Z,16.70
2018-06-30T03:46:42.250Z,16.70
2018-06-30T03:49:11.225Z,16.70
2018-06-30T03:51:40.750Z,16.70
2018-06-30T03:54:09.782Z,16.70
2018-06-30T03:56:38.447Z,16.70
2018-06-30T03:59:07.074Z,16.70
2018-06-30T04:01:35.712Z,16.70
2018-06-30T04:04:05.211Z,16.70
2018-06-30T04:06:34.008Z,16.70
2018-06-30T04:09:02.738Z,16.70
2018-06-30T04:11:32.423Z,16.70
2018-06-30T04:14:01.826Z,16.70
2018-06-30T04:16:30.600Z,16.70
2018-06-30T04:19:03.581Z,16.70
2018-06-30T04:21:33.143Z,16.70
2018-06-30T04:24:02.812Z,16.70
2018-06-30T04:26:31.509Z,16.70
2018-06-30T04:29:00.660Z,16.70
2018-06-30T04:31:31.171Z,16.70
2018-06-30T04:33:59.836Z,16.70
2018-06-30T04:36:28.722Z,16.70
2018-06-30T04:38:57.360Z,16.80
2018-06-30T04:41:26.071Z,16.80
2018-06-30T04:43:54.770Z,16.80
2018-06-30T04:46:23.617Z,16.80
2018-06-30T04:48:52.425Z,16.90
2018-06-30T04:51:21.120Z,16.90
2018-06-30T04:53:49.800Z,16.90
2018-06-30T04:56:18.511Z,17.00
2018-06-30T04:58:47.176Z,17.10
2018-06-30T05:01:15.842Z,17.10
2018-06-30T05:03:44.527Z,17.10
2018-06-30T05:06:13.651Z,17.20
2018-06-30T05:08:42.814Z,17.20
2018-06-30T05:11:11.501Z,17.20
2018-06-30T05:13:40.174Z,17.30
2018-06-30T05:16:09.250Z,17.30
2018-06-30T05:18:38.011Z,17.40
2018-06-30T05:21:06.879Z,17.40
2018-06-30T05:23:36.277Z,17.50
2018-06-30T05:26:05.011Z,17.50
2018-06-30T05:28:33.674Z,17.60
2018-06-30T05:31:02.332Z,17.70
2018-06-30T05:33:31.038Z,17.70
2018-06-30T05:36:00.727Z,17.80
2018-06-30T05:38:29.839Z,17.80
2018-06-30T05:40:58.540Z,17.90
2018-06-30T05:43:27.269Z,17.90
2018-06-30T05:45:55.987Z,18.00
2018-06-30T05:48:25.446Z,18.10
2018-06-30T05:50:55.105Z,18.10
2018-06-30T05:53:23.894Z,18.10
2018-06-30T05:55:53.296Z,18.20
2018-06-30T05:58:21.955Z,18.20
2018-06-30T06:00:51.336Z,18.30
2018-06-30T06:03:20.095Z,18.30
2018-06-30T06:05:48.802Z,18.40
2018-06-30T06:08:17.848Z,18.40
2018-06-30T06:10:46.869Z,18.50
2018-06-30T06:13:15.505Z,18.50
2018-06-30T06:15:44.285Z,18.60
2018-06-30T06:18:13.545Z,18.70
2018-06-30T06:20:42.209Z,18.70
2018-06-30T06:23:11.494Z,18.80
2018-06-30T06:25:40.193Z,18.90
2018-06-30T06:28:09.168Z,19.00
2018-06-30T06:30:37.821Z,19.10
2018-06-30T06:33:07.085Z,19.20
2018-06-30T06:35:35.740Z,19.30
2018-06-30T06:38:04.389Z,19.40
2018-06-30T06:40:33.900Z,19.40
2018-06-30T06:43:02.602Z,19.50
2018-06-30T06:45:32.716Z,19.60
2018-06-30T06:48:01.366Z,19.70
2018-06-30T06:50:30.054Z,19.70
2018-06-30T06:52:58.872Z,19.80
2018-06-30T06:55:27.532Z,19.90
2018-06-30T06:57:56.159Z,19.90
2018-06-30T07:00:24.823Z,20.00
2018-06-30T07:02:53.483Z,20.00
2018-06-30T07:05:22.112Z,20.10
2018-06-30T07:07:50.709Z,20.20
2018-06-30T07:10:19.364Z,20.30
2018-06-30T07:12:48.007Z,20.30
2018-06-30T07:15:18.141Z,20.40
2018-06-30T07:17:46.850Z,20.40
2018-06-30T07:20:16.257Z,20.50
2018-06-30T07:22:45.938Z,20.60
2018-06-30T07:25:14.428Z,20.60
2018-06-30T07:27:43.168Z,20.60
2018-06-30T07:30:11.908Z,20.60
2018-06-30T07:32:40.564Z,20.70
2018-06-30T07:35:10.341Z,20.70
2018-06-30T07:37:40.487Z,20.80
2018-06-30T07:40:09.267Z,20.80
2018-06-30T07:42:44.008Z,20.90
2018-06-30T07:45:12.681Z,21.00
2018-06-30T07:47:41.522Z,21.10
2018-06-30T07:50:11.545Z,21.10
2018-06-30T07:52:40.248Z,21.20
2018-06-30T07:55:09.206Z,21.30
2018-06-30T07:57:38.018Z,21.40
2018-06-30T08:00:07.795Z,21.40
2018-06-30T08:02:37.246Z,21.50
2018-06-30T08:05:06.077Z,21.60
2018-06-30T08:07:37.237Z,21.70
2018-06-30T08:10:09.073Z,21.80
2018-06-30T08:12:37.843Z,21.90
2018-06-30T08:15:06.749Z,22.00
2018-06-30T08:17:35.546Z,22.10
2018-06-30T08:20:04.486Z,22.30
2018-06-30T08:22:33.320Z,22.40
2018-06-30T08:25:02.925Z,22.60
2018-06-30T08:27:33.454Z,22.70
2018-06-30T08:30:02.515Z,22.80
2018-06-30T08:32:31.217Z,22.90
2018-06-30T08:34:59.963Z,23.10
2018-06-30T08:37:28.981Z,23.20
2018-06-30T08:39:57.678Z,23.30
2018-06-30T08:42:38.616Z,23.50
2018-06-30T08:45:08.090Z,23.70
2018-06-30T08:47:37.452Z,23.90
2018-06-30T08:50:06.879Z,24.10
2018-06-30T08:52:35.503Z,24.20
2018-06-30T08:55:04.846Z,24.40
2018-06-30T08:57:34.366Z,24.50
2018-06-30T09:00:04.180Z,24.60
2018-06-30T09:02:32.940Z,24.80
2018-06-30T09:05:01.596Z,24.80
2018-06-30T09:07:30.402Z,24.90
2018-06-30T09:10:01.525Z,25.00
2018-06-30T09:12:31.061Z,25.10
2018-06-30T09:14:59.784Z,25.30
2018-06-30T09:17:29.655Z,25.40
2018-06-30T09:19:58.718Z,25.50
2018-06-30T09:22:30.870Z,25.60
2018-06-30T09:24:59.964Z,25.60
2018-06-30T09:27:28.698Z,25.60
2018-06-30T09:29:58.850Z,25.70
2018-06-30T09:32:28.844Z,25.80
2018-06-30T09:34:57.845Z,25.80
2018-06-30T09:37:26.688Z,25.90
2018-06-30T09:39:55.939Z,26.00
2018-06-30T09:42:24.685Z,26.10
2018-06-30T09:44:53.471Z,26.40
2018-06-30T09:47:23.617Z,26.50
2018-06-30T09:49:52.501Z,26.60
2018-06-30T09:52:24.021Z,26.70
2018-06-30T09:54:58.080Z,26.80
2018-06-30T09:57:26.831Z,26.90
2018-06-30T09:59:55.493Z,26.90
2018-06-30T10:02:24.195Z,26.90
2018-06-30T10:04:52.887Z,27.00
2018-06-30T10:07:24.393Z,27.00
2018-06-30T10:09:54.075Z,27.10
2018-06-30T10:12:22.767Z,27.30
2018-06-30T10:14:51.888Z,27.60
2018-06-30T10:17:20.743Z,27.80
2018-06-30T10:19:49.385Z,28.10
2018-06-30T10:22:18.053Z,28.20
2018-06-30T10:24:46.750Z,28.10
2018-06-30T10:27:15.807Z,28.20
2018-06-30T10:29:44.606Z,28.40
2018-06-30T10:32:13.257Z,28.30
2018-06-30T10:34:42.911Z,27.90
2018-06-30T10:37:11.560Z,28.00
2018-06-30T10:39:40.289Z,28.10
2018-06-30T10:42:09.009Z,28.20
2018-06-30T10:44:37.769Z,28.40
2018-06-30T10:47:06.615Z,28.40
2018-06-30T10:49:39.571Z,28.40
2018-06-30T10:52:08.324Z,28.70
2018-06-30T10:54:47.708Z,28.70
2018-06-30T10:57:18.543Z,28.70
2018-06-30T10:59:47.210Z,28.80
2018-06-30T11:02:15.857Z,28.70
2018-06-30T11:04:44.954Z,28.90
2018-06-30T11:07:13.773Z,28.90
2018-06-30T11:09:42.432Z,29.00
2018-06-30T11:12:11.078Z,29.00
2018-06-30T11:14:40.085Z,29.20
2018-06-30T11:17:09.212Z,29.30
2018-06-30T11:19:38.631Z,29.40
2018-06-30T11:22:07.319Z,29.40
2018-06-30T11:24:35.963Z,29.60
2018-06-30T11:27:04.817Z,29.50
2018-06-30T11:29:34.103Z,29.70
2018-06-30T11:32:02.745Z,30.00
2018-06-30T11:34:31.464Z,30.10
2018-06-30T11:37:00.199Z,30.40
2018-06-30T11:39:28.912Z,30.50
2018-06-30T11:41:58.029Z,30.30
2018-06-30T11:44:26.681Z,30.40
2018-06-30T11:46:55.443Z,30.30
2018-06-30T11:49:25.128Z,30.20
2018-06-30T11:51:53.860Z,30.30
2018-06-30T11:54:22.626Z,30.30
2018-06-30T11:56:51.271Z,30.20
2018-06-30T11:59:19.983Z,30.00
2018-06-30T12:01:49.654Z,29.70
2018-06-30T12:04:18.348Z,29.40
2018-06-30T12:06:48.028Z,29.30
2018-06-30T12:09:21.896Z,29.60
2018-06-30T12:11:54.243Z,29.90
2018-06-30T12:14:23.442Z,30.30
2018-06-30T12:17:06.156Z,30.60
2018-06-30T12:19:35.031Z,30.60
2018-06-30T12:22:04.034Z,30.80
2018-06-30T12:24:32.705Z,31.10
2018-06-30T12:27:01.365Z,30.80
2018-06-30T12:29:30.080Z,30.90
2018-06-30T12:31:58.704Z,31.20
2018-06-30T12:34:27.319Z,31.40
2018-06-30T12:36:56.678Z,31.40
2018-06-30T12:39:25.406Z,31.50
2018-06-30T12:41:54.027Z,31.50
2018-06-30T12:44:22.673Z,31.30
2018-06-30T12:46:52.028Z,31.50
2018-06-30T12:49:20.712Z,31.60
2018-06-30T12:51:49.376Z,31.70
2018-06-30T12:54:18.121Z,31.70
2018-06-30T12:56:47.171Z,31.70
2018-06-30T12:59:15.869Z,31.70
2018-06-30T13:01:44.525Z,31.60
2018-06-30T13:04:13.614Z,31.40
2018-06-30T13:06:42.284Z,31.20
2018-06-30T13:09:12.810Z,30.50
2018-06-30T13:11:42.567Z,30.50
2018-06-30T13:14:11.326Z,30.90
2018-06-30T13:16:41.561Z,31.30
2018-06-30T13:19:10.537Z,31.70
2018-06-30T13:21:39.210Z,31.60
2018-06-30T13:24:08.158Z,31.80
2018-06-30T13:26:37.135Z,32.00
2018-06-30T13:29:05.857Z,32.30
2018-06-30T13:31:34.579Z,32.30
2018-06-30T13:34:04.649Z,32.40
2018-06-30T13:36:34.388Z,32.40
2018-06-30T13:39:06.962Z,32.50
2018-06-30T13:41:35.667Z,32.40
2018-06-30T13:44:04.880Z,32.30
2018-06-30T13:46:34.341Z,32.40
2018-06-30T13:49:03.401Z,32.50
2018-06-30T13:51:32.110Z,32.50
2018-06-30T13:54:01.816Z,32.50
2018-06-30T13:56:30.580Z,32.50
2018-06-30T13:58:59.325Z,32.50
2018-06-30T14:01:27.994Z,32.50
2018-06-30T14:03:56.669Z,32.50
2018-06-30T14:06:25.634Z,32.40
2018-06-30T14:08:54.425Z,32.30
2018-06-30T14:11:23.246Z,32.20
2018-06-30T14:13:52.322Z,31.90
2018-06-30T14:16:20.969Z,31.90
2018-06-30T14:18:49.592Z,31.90
2018-06-30T14:21:18.325Z,31.70
2018-06-30T14:23:46.970Z,31.90
2018-06-30T14:26:15.587Z,31.90
2018-06-30T14:28:44.515Z,31.90
2018-06-30T14:31:13.766Z,32.00
2018-06-30T14:33:42.445Z,32.00
2018-06-30T14:36:11.085Z,32.00
2018-06-30T14:38:39.819Z,32.10
2018-06-30T14:41:08.550Z,32.20
2018-06-30T14:43:37.218Z,32.20
2018-06-30T14:46:06.207Z,32.10
2018-06-30T14:48:34.927Z,32.20
2018-06-30T14:51:04.306Z,32.10
2018-06-30T14:53:33.848Z,32.00
2018-06-30T14:56:02.689Z,32.00
2018-06-30T14:58:31.530Z,32.10
2018-06-30T15:01:00.226Z,32.00
2018-06-30T15:03:29.062Z,32.00
2018-06-30T15:05:58.170Z,31.70
2018-06-30T15:08:26.949Z,31.80
2018-06-30T15:10:56.713Z,31.90
2018-06-30T15:13:25.425Z,32.00
2018-06-30T15:15:54.866Z,31.90
2018-06-30T15:18:23.993Z,31.90
2018-06-30T15:20:54.440Z,31.70
2018-06-30T15:23:24.501Z,31.60
2018-06-30T15:25:53.226Z,31.30
2018-06-30T15:28:22.545Z,31.10
2018-06-30T15:30:52.880Z,31.10
2018-06-30T15:33:21.558Z,30.80
2018-06-30T15:35:50.407Z,30.80
2018-06-30T15:38:19.480Z,30.80
2018-06-30T15:40:48.184Z,30.80
2018-06-30T15:43:17.554Z,30.70
2018-06-30T15:45:47.057Z,30.70
2018-06-30T15:48:16.116Z,30.70
2018-06-30T15:50:45.395Z,30.80
2018-06-30T15:53:14.000Z,30.50
2018-06-30T15:55:43.179Z,30.40
2018-06-30T15:58:12.197Z,30.30
2018-06-30T16:00:41.060Z,30.20
2018-06-30T16:03:10.363Z,30.00
2018-06-30T16:05:40.575Z,29.90
2018-06-30T16:08:09.758Z,29.80
2018-06-30T16:10:39.526Z,29.60
2018-06-30T16:13:08.973Z,29.50
2018-06-30T16:15:37.655Z,29.40
2018-06-30T16:18:07.146Z,29.20
2018-06-30T16:20:36.469Z,29.20
2018-06-30T16:23:05.199Z,28.90
2018-06-30T16:25:34.371Z,28.60
2018-06-30T16:28:03.380Z,28.70
2018-06-30T16:30:32.221Z,28.90
2018-06-30T16:33:00.992Z,29.00
2018-06-30T16:35:29.697Z,29.00
2018-06-30T16:38:00.553Z,29.10
2018-06-30T16:40:29.231Z,29.10
2018-06-30T16:42:57.997Z,28.80
2018-06-30T16:45:26.749Z,28.70
2018-06-30T16:47:56.985Z,28.70
2018-06-30T16:50:27.045Z,28.40
2018-06-30T16:52:55.721Z,28.30
2018-06-30T16:55:24.398Z,28.10
2018-06-30T16:57:53.147Z,28.00
2018-06-30T17:00:22.271Z,27.80
2018-06-30T17:02:50.977Z,27.80
2018-06-30T17:05:19.690Z,27.80
2018-06-30T17:07:48.374Z,27.80
2018-06-30T17:10:17.192Z,27.80
2018-06-30T17:12:45.837Z,27.50
2018-06-30T17:15:14.468Z,27.50
2018-06-30T17:17:43.149Z,27.40
2018-06-30T17:20:11.897Z,27.30
2018-06-30T17:22:40.502Z,27.30
2018-06-30T17:25:09.248Z,27.40
2018-06-30T17:27:37.913Z,27.30
2018-06-30T17:30:06.684Z,27.20
2018-06-30T17:32:35.409Z,27.10
2018-06-30T17:35:04.137Z,27.00
2018-06-30T17:37:33.004Z,26.90
2018-06-30T17:40:01.790Z,26.60
2018-06-30T17:42:30.527Z,26.40
2018-06-30T17:44:59.173Z,26.30
2018-06-30T17:47:27.832Z,26.30
2018-06-30T17:49:56.433Z,26.20
2018-06-30T17:52:25.472Z,26.10
2018-06-30T17:54:54.108Z,25.90
2018-06-30T17:57:22.807Z,25.70
2018-06-30T17:59:51.542Z,25.60
2018-06-30T18:02:20.171Z,25.60
2018-06-30T18:04:48.799Z,25.50
2018-06-30T18:07:17.436Z,25.30
2018-06-30T18:09:46.157Z,25.20
2018-06-30T18:12:15.012Z,25.10
2018-06-30T18:14:43.667Z,25.00
2018-06-30T18:17:12.409Z,24.90
2018-06-30T18:19:41.046Z,24.90
2018-06-30T18:22:09.689Z,24.80
2018-06-30T18:24:38.330Z,24.70
2018-06-30T18:27:07.607Z,24.60
2018-06-30T18:29:36.254Z,24.50
2018-06-30T18:32:05.974Z,24.40
2018-06-30T18:34:34.650Z,24.30
2018-06-30T18:37:03.358Z,24.20
2018-06-30T18:39:31.994Z,24.10
2018-06-30T18:42:00.650Z,24.10
2018-06-30T18:44:29.379Z,24.10
2018-06-30T18:46:58.044Z,23.90
2018-06-30T18:49:26.730Z,23.80
2018-06-30T18:51:55.512Z,23.70
2018-06-30T18:54:24.202Z,23.60
2018-06-30T18:56:52.914Z,23.60
2018-06-30T18:59:21.639Z,23.50
2018-06-30T19:01:50.377Z,23.50
2018-06-30T19:04:19.058Z,23.40
2018-06-30T19:06:47.722Z,23.30
2018-06-30T19:09:16.389Z,23.20
2018-06-30T19:11:45.519Z,23.10
2018-06-30T19:14:14.245Z,23.10
2018-06-30T19:16:42.907Z,23.00
2018-06-30T19:19:11.527Z,22.90
2018-06-30T19:21:40.161Z,22.90
2018-06-30T19:24:08.812Z,22.80
2018-06-30T19:26:37.486Z,22.70
2018-06-30T19:29:06.211Z,22.70
2018-06-30T19:31:35.209Z,22.60
2018-06-30T19:34:03.904Z,22.50
2018-06-30T19:36:32.623Z,22.50
2018-06-30T19:39:01.230Z,22.40
2018-06-30T19:41:29.935Z,22.30
2018-06-30T19:43:58.617Z,22.20
2018-06-30T19:46:27.255Z,22.20
2018-06-30T19:48:55.888Z,22.10
2018-06-30T19:51:24.600Z,22.10
2018-06-30T19:53:53.240Z,22.00
2018-06-30T19:56:21.906Z,21.90
2018-06-30T19:58:50.542Z,21.80
2018-06-30T20:01:19.271Z,21.80
2018-06-30T20:03:48.063Z,21.70
2018-06-30T20:06:16.818Z,21.70
2018-06-30T20:08:45.487Z,21.60
2018-06-30T20:11:14.104Z,21.50
2018-06-30T20:13:42.756Z,21.40
2018-06-30T20:16:11.752Z,21.40
2018-06-30T20:18:40.603Z,21.30
2018-06-30T20:21:09.276Z,21.20
2018-06-30T20:23:37.961Z,21.20
2018-06-30T20:26:06.661Z,21.20
2018-06-30T20:28:35.650Z,21.10
2018-06-30T20:31:04.319Z,21.10
2018-06-30T20:33:33.782Z,21.00
2018-06-30T20:36:02.442Z,21.00
2018-06-30T20:38:31.128Z,20.90
2018-06-30T20:40:59.758Z,20.80
2018-06-30T20:43:28.432Z,20.80
2018-06-30T20:45:57.090Z,20.70
2018-06-30T20:48:25.717Z,20.70
2018-06-30T20:50:54.397Z,20.70
2018-06-30T20:53:23.034Z,20.60
2018-06-30T20:55:52.360Z,20.50
2018-06-30T20:58:21.021Z,20.50
2018-06-30T21:00:49.714Z,20.40
2018-06-30T21:03:18.364Z,20.30
2018-06-30T21:05:47.331Z,20.20
2018-06-30T21:08:16.131Z,20.20
2018-06-30T21:10:44.714Z,20.10
2018-06-30T21:13:14.378Z,20.10
2018-06-30T21:15:43.252Z,20.10
2018-06-30T21:18:11.995Z,20.10
2018-06-30T21:20:40.973Z,20.00
2018-06-30T21:23:09.691Z,19.90
2018-06-30T21:25:38.289Z,19.90
2018-06-30T21:28:07.086Z,19.80
2018-06-30T21:30:35.944Z,19.80
2018-06-30T21:33:04.658Z,19.80
2018-06-30T21:35:33.428Z,19.80
2018-06-30T21:38:02.100Z,19.80
2018-06-30T21:40:30.863Z,19.70
2018-06-30T21:42:59.696Z,19.70
2018-06-30T21:45:28.454Z,19.70
2018-06-30T21:47:57.336Z,19.60
2018-06-30T21:50:26.106Z,19.60
2018-06-30T21:52:54.771Z,19.50
2018-06-30T21:55:23.500Z,19.50
2018-06-30T21:57:52.232Z,19.50
2018-06-30T22:00:30.370Z,19.40
2018-06-30T22:02:59.020Z,19.40
2018-06-30T22:05:27.740Z,19.40
2018-06-30T22:07:56.439Z,19.40
2018-06-30T22:10:25.164Z,19.40
2018-06-30T22:12:53.854Z,19.30
2018-06-30T22:15:22.584Z,19.30
2018-06-30T22:17:51.272Z,19.20
2018-06-30T22:20:19.907Z,19.20
2018-06-30T22:22:48.593Z,19.20
2018-06-30T22:25:17.271Z,19.10
2018-06-30T22:27:45.939Z,19.10
2018-06-30T22:30:14.590Z,19.10
2018-06-30T22:32:43.205Z,19.00
2018-06-30T22:35:11.897Z,19.00
2018-06-30T22:37:40.512Z,18.90
2018-06-30T22:40:16.024Z,18.90
2018-06-30T22:42:45.365Z,18.80
2018-06-30T22:45:14.387Z,18.80
2018-06-30T22:47:43.247Z,18.70
2018-06-30T22:50:12.128Z,18.70
2018-06-30T22:52:40.736Z,18.70
2018-06-30T22:55:09.388Z,18.60
2018-06-30T22:57:38.020Z,18.60
2018-06-30T23:00:09.414Z,18.60
2018-06-30T23:02:38.310Z,18.60
2018-06-30T23:05:07.581Z,18.50
2018-06-30T23:07:36.342Z,18.50
2018-06-30T23:10:05.155Z,18.40
2018-06-30T23:12:33.842Z,18.40
2018-06-30T23:15:02.538Z,18.40
2018-06-30T23:17:31.201Z,18.30
2018-06-30T23:19:59.863Z,18.30
2018-06-30T23:23:04.115Z,18.30
2018-06-30T23:25:33.402Z,18.20
2018-06-30T23:28:02.375Z,18.20
2018-06-30T23:30:31.557Z,18.20
2018-06-30T23:33:00.781Z,18.10
2018-06-30T23:35:31.149Z,18.00
2018-06-30T23:38:00.501Z,18.00
2018-06-30T23:40:29.223Z,18.00
2018-06-30T23:42:57.894Z,17.90
2018-06-30T23:45:26.562Z,17.90
2018-06-30T23:47:55.509Z,17.90
2018-06-30T23:50:24.508Z,17.90
2018-06-30T23:52:53.197Z,17.80
2018-06-30T23:55:21.860Z,17.80
2018-06-30T23:57:50.527Z,17.80
